sensor_id;sensor_type;location;lat;lon;timestamp;temperature;humidity
29571;DHT22;16814;52.118;11.436;2022-09-29T00:01:24;8.30;99.90
29571;DHT22;16814;52.118;11.436;2022-09-29T00:03:50;8.30;99.90
29571;DHT22;16814;52.118;11.436;2022-09-29T00:06:17;8.30;99.90
29571;DHT22;16814;52.118;11.436;2022-09-29T00:08:43;8.30;99.90
29571;DHT22;16814;52.118;11.436;2022-09-29T00:11:11;8.40;99.90
29571;DHT22;16814;52.118;11.436;2022-09-29T00:13:37;8.40;99.90
29571;DHT22;16814;52.118;11.436;2022-09-29T00:16:03;8.50;99.90
29571;DHT22;16814;52.118;11.436;2022-09-29T00:18:31;8.50;99.90
29571;DHT22;16814;52.118;11.436;2022-09-29T00:20:58;8.50;99.90
29571;DHT22;16814;52.118;11.436;2022-09-29T00:23:25;8.70;99.90
29571;DHT22;16814;52.118;11.436;2022-09-29T00:26:10;8.50;99.90
29571;DHT22;16814;52.118;11.436;2022-09-29T00:28:37;8.50;99.90
29571;DHT22;16814;52.118;11.436;2022-09-29T00:31:05;8.60;99.90
29571;DHT22;16814;52.118;11.436;2022-09-29T00:33:33;8.60;99.90
29571;DHT22;16814;52.118;11.436;2022-09-29T00:36:08;8.60;99.90
29571;DHT22;16814;52.118;11.436;2022-09-29T00:38:34;8.50;99.90
29571;DHT22;16814;52.118;11.436;2022-09-29T00:41:00;8.40;99.90
29571;DHT22;16814;52.118;11.436;2022-09-29T00:43:49;8.40;99.90
29571;DHT22;16814;52.118;11.436;2022-09-29T00:46:17;8.60;99.90
29571;DHT22;16814;52.118;11.436;2022-09-29T00:48:46;8.60;99.90
29571;DHT22;16814;52.118;11.436;2022-09-29T00:51:12;8.60;99.90
29571;DHT22;16814;52.118;11.436;2022-09-29T00:53:46;8.60;99.90
29571;DHT22;16814;52.118;11.436;2022-09-29T00:56:14;8.60;99.90
29571;DHT22;16814;52.118;11.436;2022-09-29T00:58:48;8.60;99.90
29571;DHT22;16814;52.118;11.436;2022-09-29T01:01:23;8.50;99.90
29571;DHT22;16814;52.118;11.436;2022-09-29T01:03:52;8.40;99.90
29571;DHT22;16814;52.118;11.436;2022-09-29T01:06:38;8.50;99.90
29571;DHT22;16814;52.118;11.436;2022-09-29T01:09:14;8.50;99.90
29571;DHT22;16814;52.118;11.436;2022-09-29T01:11:40;8.60;99.90
29571;DHT22;16814;52.118;11.436;2022-09-29T01:14:08;8.70;99.90
29571;DHT22;16814;52.118;11.436;2022-09-29T01:16:35;8.70;99.90
29571;DHT22;16814;52.118;11.436;2022-09-29T01:19:06;8.80;99.90
29571;DHT22;16814;52.118;11.436;2022-09-29T01:24:45;8.70;99.90
29571;DHT22;16814;52.118;11.436;2022-09-29T01:27:27;8.70;99.90
29571;DHT22;16814;52.118;11.436;2022-09-29T01:30:12;8.60;99.90
29571;DHT22;16814;52.118;11.436;2022-09-29T01:41:17;8.40;99.90
29571;DHT22;16814;52.118;11.436;2022-09-29T01:43:59;8.40;99.90
29571;DHT22;16814;52.118;11.436;2022-09-29T01:46:31;8.40;99.90
29571;DHT22;16814;52.118;11.436;2022-09-29T01:48:59;8.40;99.90
29571;DHT22;16814;52.118;11.436;2022-09-29T01:51:44;8.50;99.90
29571;DHT22;16814;52.118;11.436;2022-09-29T01:54:16;8.50;99.90
29571;DHT22;16814;52.118;11.436;2022-09-29T01:56:47;8.50;99.90
29571;DHT22;16814;52.118;11.436;2022-09-29T01:59:20;8.60;99.90
29571;DHT22;16814;52.118;11.436;2022-09-29T02:01:49;8.60;99.90
29571;DHT22;16814;52.118;11.436;2022-09-29T02:04:32;8.60;99.90
29571;DHT22;16814;52.118;11.436;2022-09-29T02:07:07;8.70;99.90
29571;DHT22;16814;52.118;11.436;2022-09-29T02:09:53;8.70;99.90
29571;DHT22;16814;52.118;11.436;2022-09-29T02:12:24;8.80;99.90
29571;DHT22;16814;52.118;11.436;2022-09-29T02:14:53;8.70;99.90
29571;DHT22;16814;52.118;11.436;2022-09-29T02:17:23;8.60;99.90
29571;DHT22;16814;52.118;11.436;2022-09-29T02:19:50;8.70;99.90
29571;DHT22;16814;52.118;11.436;2022-09-29T02:22:17;8.70;99.90
29571;DHT22;16814;52.118;11.436;2022-09-29T02:24:43;8.80;99.90
29571;DHT22;16814;52.118;11.436;2022-09-29T02:27:11;8.70;99.90
29571;DHT22;16814;52.118;11.436;2022-09-29T02:29:38;8.70;99.90
29571;DHT22;16814;52.118;11.436;2022-09-29T02:32:06;8.70;99.90
29571;DHT22;16814;52.118;11.436;2022-09-29T02:34:36;8.70;99.90
29571;DHT22;16814;52.118;11.436;2022-09-29T02:37:26;8.70;99.90
29571;DHT22;16814;52.118;11.436;2022-09-29T02:40:17;8.70;99.90
29571;DHT22;16814;52.118;11.436;2022-09-29T02:42:58;8.70;99.90
29571;DHT22;16814;52.118;11.436;2022-09-29T02:45:38;8.70;99.90
29571;DHT22;16814;52.118;11.436;2022-09-29T02:48:43;8.80;99.90
29571;DHT22;16814;52.118;11.436;2022-09-29T02:51:25;8.80;99.90
29571;DHT22;16814;52.118;11.436;2022-09-29T02:54:10;8.80;99.90
29571;DHT22;16814;52.118;11.436;2022-09-29T02:59:23;8.60;99.90
29571;DHT22;16814;52.118;11.436;2022-09-29T03:01:53;8.50;99.90
29571;DHT22;16814;52.118;11.436;2022-09-29T03:04:21;8.40;99.90
29571;DHT22;16814;52.118;11.436;2022-09-29T03:06:47;8.40;99.90
29571;DHT22;16814;52.118;11.436;2022-09-29T03:09:12;8.40;99.90
29571;DHT22;16814;52.118;11.436;2022-09-29T03:11:38;8.40;99.90
29571;DHT22;16814;52.118;11.436;2022-09-29T03:14:04;8.50;99.90
29571;DHT22;16814;52.118;11.436;2022-09-29T03:16:31;8.60;99.90
29571;DHT22;16814;52.118;11.436;2022-09-29T03:18:56;8.70;99.90
29571;DHT22;16814;52.118;11.436;2022-09-29T03:21:23;8.80;99.90
29571;DHT22;16814;52.118;11.436;2022-09-29T03:23:48;8.60;99.90
29571;DHT22;16814;52.118;11.436;2022-09-29T03:26:14;8.70;99.90
29571;DHT22;16814;52.118;11.436;2022-09-29T03:28:39;8.70;99.90
29571;DHT22;16814;52.118;11.436;2022-09-29T03:31:06;8.80;99.90
29571;DHT22;16814;52.118;11.436;2022-09-29T03:33:34;8.80;99.90
29571;DHT22;16814;52.118;11.436;2022-09-29T03:35:59;8.70;99.90
29571;DHT22;16814;52.118;11.436;2022-09-29T03:38:25;8.70;99.90
29571;DHT22;16814;52.118;11.436;2022-09-29T03:40:51;8.60;99.90
29571;DHT22;16814;52.118;11.436;2022-09-29T03:43:16;8.60;99.90
29571;DHT22;16814;52.118;11.436;2022-09-29T03:45:49;8.50;99.90
29571;DHT22;16814;52.118;11.436;2022-09-29T03:48:16;8.40;99.90
29571;DHT22;16814;52.118;11.436;2022-09-29T03:50:48;8.40;99.90
29571;DHT22;16814;52.118;11.436;2022-09-29T03:53:14;8.40;99.90
29571;DHT22;16814;52.118;11.436;2022-09-29T03:55:40;8.30;99.90
29571;DHT22;16814;52.118;11.436;2022-09-29T03:58:09;8.20;99.90
29571;DHT22;16814;52.118;11.436;2022-09-29T04:00:35;8.20;99.90
29571;DHT22;16814;52.118;11.436;2022-09-29T04:03:01;8.00;99.90
29571;DHT22;16814;52.118;11.436;2022-09-29T04:05:27;8.00;99.90
29571;DHT22;16814;52.118;11.436;2022-09-29T04:07:53;8.00;99.90
29571;DHT22;16814;52.118;11.436;2022-09-29T04:10:18;8.00;99.90
29571;DHT22;16814;52.118;11.436;2022-09-29T04:12:44;8.10;99.90
29571;DHT22;16814;52.118;11.436;2022-09-29T04:15:09;8.00;99.90
29571;DHT22;16814;52.118;11.436;2022-09-29T04:17:35;8.00;99.90
29571;DHT22;16814;52.118;11.436;2022-09-29T04:20:00;8.00;99.90
29571;DHT22;16814;52.118;11.436;2022-09-29T04:22:26;8.00;99.90
29571;DHT22;16814;52.118;11.436;2022-09-29T04:24:55;8.10;99.90
29571;DHT22;16814;52.118;11.436;2022-09-29T04:27:21;8.00;99.90
29571;DHT22;16814;52.118;11.436;2022-09-29T04:29:46;8.00;99.90
29571;DHT22;16814;52.118;11.436;2022-09-29T04:32:12;8.00;99.90
29571;DHT22;16814;52.118;11.436;2022-09-29T04:34:37;8.00;99.90
29571;DHT22;16814;52.118;11.436;2022-09-29T04:37:03;8.00;99.90
29571;DHT22;16814;52.118;11.436;2022-09-29T04:39:28;8.00;99.90
29571;DHT22;16814;52.118;11.436;2022-09-29T04:41:54;7.80;99.90
29571;DHT22;16814;52.118;11.436;2022-09-29T04:44:21;7.70;99.90
29571;DHT22;16814;52.118;11.436;2022-09-29T04:46:49;7.60;99.90
29571;DHT22;16814;52.118;11.436;2022-09-29T04:49:16;7.70;99.90
29571;DHT22;16814;52.118;11.436;2022-09-29T04:51:42;7.70;99.90
29571;DHT22;16814;52.118;11.436;2022-09-29T04:54:07;7.60;99.90
29571;DHT22;16814;52.118;11.436;2022-09-29T04:56:33;7.70;99.90
29571;DHT22;16814;52.118;11.436;2022-09-29T04:58:58;7.70;99.90
29571;DHT22;16814;52.118;11.436;2022-09-29T05:01:24;7.70;99.90
29571;DHT22;16814;52.118;11.436;2022-09-29T05:03:49;7.70;99.90
29571;DHT22;16814;52.118;11.436;2022-09-29T05:06:15;7.70;99.90
29571;DHT22;16814;52.118;11.436;2022-09-29T05:08:41;7.70;99.90
29571;DHT22;16814;52.118;11.436;2022-09-29T05:11:08;7.70;99.90
29571;DHT22;16814;52.118;11.436;2022-09-29T05:13:35;7.60;99.90
29571;DHT22;16814;52.118;11.436;2022-09-29T05:16:01;7.60;99.90
29571;DHT22;16814;52.118;11.436;2022-09-29T05:18:27;7.60;99.90
29571;DHT22;16814;52.118;11.436;2022-09-29T05:20:53;7.50;99.90
29571;DHT22;16814;52.118;11.436;2022-09-29T05:23:18;7.50;99.90
29571;DHT22;16814;52.118;11.436;2022-09-29T05:25:44;7.50;99.90
29571;DHT22;16814;52.118;11.436;2022-09-29T05:28:11;7.50;99.90
29571;DHT22;16814;52.118;11.436;2022-09-29T05:30:37;7.50;99.90
29571;DHT22;16814;52.118;11.436;2022-09-29T05:33:03;7.50;99.90
29571;DHT22;16814;52.118;11.436;2022-09-29T05:35:29;7.40;99.90
29571;DHT22;16814;52.118;11.436;2022-09-29T05:37:57;7.40;99.90
29571;DHT22;16814;52.118;11.436;2022-09-29T05:40:22;7.40;99.90
29571;DHT22;16814;52.118;11.436;2022-09-29T05:42:50;7.40;99.90
29571;DHT22;16814;52.118;11.436;2022-09-29T05:45:16;7.40;99.90
29571;DHT22;16814;52.118;11.436;2022-09-29T05:47:43;7.50;99.90
29571;DHT22;16814;52.118;11.436;2022-09-29T05:50:12;7.50;99.90
29571;DHT22;16814;52.118;11.436;2022-09-29T05:52:38;7.50;99.90
29571;DHT22;16814;52.118;11.436;2022-09-29T05:55:05;7.40;99.90
29571;DHT22;16814;52.118;11.436;2022-09-29T05:57:33;7.10;99.90
29571;DHT22;16814;52.118;11.436;2022-09-29T05:59:59;7.00;99.90
29571;DHT22;16814;52.118;11.436;2022-09-29T06:02:24;6.90;99.90
29571;DHT22;16814;52.118;11.436;2022-09-29T06:04:50;6.90;99.90
29571;DHT22;16814;52.118;11.436;2022-09-29T06:07:15;7.10;99.90
29571;DHT22;16814;52.118;11.436;2022-09-29T06:09:41;7.30;99.90
29571;DHT22;16814;52.118;11.436;2022-09-29T06:12:06;7.40;99.90
29571;DHT22;16814;52.118;11.436;2022-09-29T06:14:32;7.40;99.90
29571;DHT22;16814;52.118;11.436;2022-09-29T06:16:57;7.50;99.90
29571;DHT22;16814;52.118;11.436;2022-09-29T06:19:23;7.40;99.90
29571;DHT22;16814;52.118;11.436;2022-09-29T06:21:50;7.50;99.90
29571;DHT22;16814;52.118;11.436;2022-09-29T06:24:15;7.60;99.90
29571;DHT22;16814;52.118;11.436;2022-09-29T06:26:41;7.80;99.90
29571;DHT22;16814;52.118;11.436;2022-09-29T06:29:06;8.20;99.90
29571;DHT22;16814;52.118;11.436;2022-09-29T06:31:35;8.40;99.90
29571;DHT22;16814;52.118;11.436;2022-09-29T06:34:04;8.80;99.90
29571;DHT22;16814;52.118;11.436;2022-09-29T06:36:33;9.00;99.90
29571;DHT22;16814;52.118;11.436;2022-09-29T06:39:18;9.20;99.90
29571;DHT22;16814;52.118;11.436;2022-09-29T06:41:44;9.50;99.90
29571;DHT22;16814;52.118;11.436;2022-09-29T06:44:16;10.00;99.90
29571;DHT22;16814;52.118;11.436;2022-09-29T06:46:41;11.70;99.90
29571;DHT22;16814;52.118;11.436;2022-09-29T06:49:11;13.30;99.90
29571;DHT22;16814;52.118;11.436;2022-09-29T06:51:38;14.80;99.90
29571;DHT22;16814;52.118;11.436;2022-09-29T06:54:04;15.50;99.90
29571;DHT22;16814;52.118;11.436;2022-09-29T06:56:32;15.60;99.90
29571;DHT22;16814;52.118;11.436;2022-09-29T06:58:59;16.00;99.90
29571;DHT22;16814;52.118;11.436;2022-09-29T07:01:26;15.90;99.90
29571;DHT22;16814;52.118;11.436;2022-09-29T07:03:52;15.70;99.90
29571;DHT22;16814;52.118;11.436;2022-09-29T07:06:19;15.90;99.90
29571;DHT22;16814;52.118;11.436;2022-09-29T07:08:46;15.90;99.90
29571;DHT22;16814;52.118;11.436;2022-09-29T07:11:14;16.40;99.90
29571;DHT22;16814;52.118;11.436;2022-09-29T07:13:43;16.40;99.90
29571;DHT22;16814;52.118;11.436;2022-09-29T07:16:13;16.50;99.90
29571;DHT22;16814;52.118;11.436;2022-09-29T07:18:41;17.40;99.90
29571;DHT22;16814;52.118;11.436;2022-09-29T07:21:10;17.50;99.90
29571;DHT22;16814;52.118;11.436;2022-09-29T07:23:38;17.90;99.90
29571;DHT22;16814;52.118;11.436;2022-09-29T07:26:05;17.80;99.90
29571;DHT22;16814;52.118;11.436;2022-09-29T07:28:32;17.70;99.90
29571;DHT22;16814;52.118;11.436;2022-09-29T07:30:59;17.70;99.90
29571;DHT22;16814;52.118;11.436;2022-09-29T07:33:27;17.80;99.90
29571;DHT22;16814;52.118;11.436;2022-09-29T07:35:54;17.60;99.90
29571;DHT22;16814;52.118;11.436;2022-09-29T07:38:29;17.30;99.90
29571;DHT22;16814;52.118;11.436;2022-09-29T07:41:05;17.20;99.90
29571;DHT22;16814;52.118;11.436;2022-09-29T07:43:32;17.20;99.90
29571;DHT22;16814;52.118;11.436;2022-09-29T07:45:59;17.60;99.90
29571;DHT22;16814;52.118;11.436;2022-09-29T07:48:26;16.90;99.90
29571;DHT22;16814;52.118;11.436;2022-09-29T07:50:56;16.90;99.90
29571;DHT22;16814;52.118;11.436;2022-09-29T07:53:24;16.80;99.90
29571;DHT22;16814;52.118;11.436;2022-09-29T07:55:50;16.70;99.90
29571;DHT22;16814;52.118;11.436;2022-09-29T07:58:19;16.60;99.90
29571;DHT22;16814;52.118;11.436;2022-09-29T08:00:52;16.30;99.90
29571;DHT22;16814;52.118;11.436;2022-09-29T08:03:19;16.10;99.90
29571;DHT22;16814;52.118;11.436;2022-09-29T08:05:45;16.00;99.90
29571;DHT22;16814;52.118;11.436;2022-09-29T08:08:13;15.80;99.90
29571;DHT22;16814;52.118;11.436;2022-09-29T08:10:38;15.30;99.90
29571;DHT22;16814;52.118;11.436;2022-09-29T08:13:03;15.10;99.90
29571;DHT22;16814;52.118;11.436;2022-09-29T08:15:30;14.90;99.90
29571;DHT22;16814;52.118;11.436;2022-09-29T08:17:58;14.90;99.90
29571;DHT22;16814;52.118;11.436;2022-09-29T08:20:24;14.80;99.90
29571;DHT22;16814;52.118;11.436;2022-09-29T08:22:52;14.70;99.90
29571;DHT22;16814;52.118;11.436;2022-09-29T08:25:22;14.80;99.90
29571;DHT22;16814;52.118;11.436;2022-09-29T08:27:53;14.80;99.90
29571;DHT22;16814;52.118;11.436;2022-09-29T08:30:19;14.80;99.90
29571;DHT22;16814;52.118;11.436;2022-09-29T08:32:52;14.90;99.90
29571;DHT22;16814;52.118;11.436;2022-09-29T08:35:19;15.10;99.90
29571;DHT22;16814;52.118;11.436;2022-09-29T08:37:50;15.10;99.90
29571;DHT22;16814;52.118;11.436;2022-09-29T08:40:18;15.10;99.90
29571;DHT22;16814;52.118;11.436;2022-09-29T08:43:14;15.10;99.90
29571;DHT22;16814;52.118;11.436;2022-09-29T08:45:46;15.30;99.90
29571;DHT22;16814;52.118;11.436;2022-09-29T08:48:22;14.90;99.90
29571;DHT22;16814;52.118;11.436;2022-09-29T08:50:58;14.90;99.90
29571;DHT22;16814;52.118;11.436;2022-09-29T08:53:27;15.10;99.90
29571;DHT22;16814;52.118;11.436;2022-09-29T08:56:07;15.30;99.90
29571;DHT22;16814;52.118;11.436;2022-09-29T08:58:37;15.40;99.90
29571;DHT22;16814;52.118;11.436;2022-09-29T09:12:38;15.40;99.90
29571;DHT22;16814;52.118;11.436;2022-09-29T09:18:36;16.20;99.90
29571;DHT22;16814;52.118;11.436;2022-09-29T09:23:57;16.70;99.90
29571;DHT22;16814;52.118;11.436;2022-09-29T09:26:38;16.70;99.90
29571;DHT22;16814;52.118;11.436;2022-09-29T09:32:09;16.60;99.90
29571;DHT22;16814;52.118;11.436;2022-09-29T09:34:58;16.40;99.90
29571;DHT22;16814;52.118;11.436;2022-09-29T09:37:32;16.40;99.90
29571;DHT22;16814;52.118;11.436;2022-09-29T09:42:43;16.70;99.90
29571;DHT22;16814;52.118;11.436;2022-09-29T09:45:30;17.00;99.90
29571;DHT22;16814;52.118;11.436;2022-09-29T09:48:34;17.10;99.90
29571;DHT22;16814;52.118;11.436;2022-09-29T09:53:55;17.80;99.90
29571;DHT22;16814;52.118;11.436;2022-09-29T09:56:40;17.80;99.90
29571;DHT22;16814;52.118;11.436;2022-09-29T09:59:23;18.00;99.90
29571;DHT22;16814;52.118;11.436;2022-09-29T10:01:50;18.00;99.90
29571;DHT22;16814;52.118;11.436;2022-09-29T10:04:17;17.70;99.90
29571;DHT22;16814;52.118;11.436;2022-09-29T10:06:45;17.90;99.90
29571;DHT22;16814;52.118;11.436;2022-09-29T10:09:14;18.00;99.90
29571;DHT22;16814;52.118;11.436;2022-09-29T10:11:41;17.80;99.90
29571;DHT22;16814;52.118;11.436;2022-09-29T10:14:26;17.80;99.90
29571;DHT22;16814;52.118;11.436;2022-09-29T10:17:04;17.40;99.90
29571;DHT22;16814;52.118;11.436;2022-09-29T10:20:00;17.20;99.90
29571;DHT22;16814;52.118;11.436;2022-09-29T10:22:36;16.90;99.90
29571;DHT22;16814;52.118;11.436;2022-09-29T10:25:16;16.80;99.90
29571;DHT22;16814;52.118;11.436;2022-09-29T10:27:55;16.80;99.90
29571;DHT22;16814;52.118;11.436;2022-09-29T10:30:30;16.70;99.90
29571;DHT22;16814;52.118;11.436;2022-09-29T10:33:01;16.70;99.90
29571;DHT22;16814;52.118;11.436;2022-09-29T10:35:36;16.90;99.90
29571;DHT22;16814;52.118;11.436;2022-09-29T10:38:15;16.90;99.90
29571;DHT22;16814;52.118;11.436;2022-09-29T10:41:02;17.20;99.90
29571;DHT22;16814;52.118;11.436;2022-09-29T10:43:42;17.40;99.90
29571;DHT22;16814;52.118;11.436;2022-09-29T10:49:16;17.20;99.90
29571;DHT22;16814;52.118;11.436;2022-09-29T10:51:58;17.10;99.90
29571;DHT22;16814;52.118;11.436;2022-09-29T10:54:30;17.10;99.90
29571;DHT22;16814;52.118;11.436;2022-09-29T10:56:58;16.80;99.90
29571;DHT22;16814;52.118;11.436;2022-09-29T10:59:27;16.90;99.90
29571;DHT22;16814;52.118;11.436;2022-09-29T11:01:58;17.20;99.90
29571;DHT22;16814;52.118;11.436;2022-09-29T11:04:32;17.20;99.90
29571;DHT22;16814;52.118;11.436;2022-09-29T11:07:07;17.10;99.90
29571;DHT22;16814;52.118;11.436;2022-09-29T11:09:39;17.20;99.90
29571;DHT22;16814;52.118;11.436;2022-09-29T11:12:27;17.40;99.90
29571;DHT22;16814;52.118;11.436;2022-09-29T11:14:54;17.00;99.90
29571;DHT22;16814;52.118;11.436;2022-09-29T11:17:22;16.70;99.90
29571;DHT22;16814;52.118;11.436;2022-09-29T11:19:53;16.60;99.90
29571;DHT22;16814;52.118;11.436;2022-09-29T11:25:44;17.00;99.90
29571;DHT22;16814;52.118;11.436;2022-09-29T11:31:31;16.60;99.90
29571;DHT22;16814;52.118;11.436;2022-09-29T11:36:59;16.10;99.90
29571;DHT22;16814;52.118;11.436;2022-09-29T11:45:30;16.20;99.90
29571;DHT22;16814;52.118;11.436;2022-09-29T11:48:27;15.80;99.90
29571;DHT22;16814;52.118;11.436;2022-09-29T11:51:25;15.80;99.90
29571;DHT22;16814;52.118;11.436;2022-09-29T11:54:12;15.60;99.90
29571;DHT22;16814;52.118;11.436;2022-09-29T11:56:58;15.80;99.90
29571;DHT22;16814;52.118;11.436;2022-09-29T12:00:03;16.00;99.90
29571;DHT22;16814;52.118;11.436;2022-09-29T12:03:15;16.10;99.90
29571;DHT22;16814;52.118;11.436;2022-09-29T12:06:15;16.20;99.90
29571;DHT22;16814;52.118;11.436;2022-09-29T12:17:29;16.10;99.90
29571;DHT22;16814;52.118;11.436;2022-09-29T12:20:04;16.30;99.90
29571;DHT22;16814;52.118;11.436;2022-09-29T12:22:32;16.20;99.90
29571;DHT22;16814;52.118;11.436;2022-09-29T12:25:01;15.60;99.90
29571;DHT22;16814;52.118;11.436;2022-09-29T12:27:39;15.30;99.90
29571;DHT22;16814;52.118;11.436;2022-09-29T12:30:27;15.10;99.90
29571;DHT22;16814;52.118;11.436;2022-09-29T12:33:21;15.50;99.90
29571;DHT22;16814;52.118;11.436;2022-09-29T12:42:15;16.00;99.90
29571;DHT22;16814;52.118;11.436;2022-09-29T12:44:47;15.80;99.90
29571;DHT22;16814;52.118;11.436;2022-09-29T12:50:17;15.50;99.90
29571;DHT22;16814;52.118;11.436;2022-09-29T12:55:40;15.00;99.90
29571;DHT22;16814;52.118;11.436;2022-09-29T12:58:22;14.70;99.90
29571;DHT22;16814;52.118;11.436;2022-09-29T13:01:01;14.40;99.90
29571;DHT22;16814;52.118;11.436;2022-09-29T13:03:49;14.30;99.90
29571;DHT22;16814;52.118;11.436;2022-09-29T13:06:51;14.20;99.90
29571;DHT22;16814;52.118;11.436;2022-09-29T13:09:56;14.10;99.90
29571;DHT22;16814;52.118;11.436;2022-09-29T13:13:01;14.10;99.90
29571;DHT22;16814;52.118;11.436;2022-09-29T13:15:46;14.40;99.90
29571;DHT22;16814;52.118;11.436;2022-09-29T13:21:58;14.70;99.90
29571;DHT22;16814;52.118;11.436;2022-09-29T13:24:46;14.80;99.90
29571;DHT22;16814;52.118;11.436;2022-09-29T13:27:31;15.00;99.90
29571;DHT22;16814;52.118;11.436;2022-09-29T13:30:22;14.80;99.90
29571;DHT22;16814;52.118;11.436;2022-09-29T13:35:27;14.80;99.90
29571;DHT22;16814;52.118;11.436;2022-09-29T13:38:01;15.10;99.90
29571;DHT22;16814;52.118;11.436;2022-09-29T13:40:29;15.30;99.90
29571;DHT22;16814;52.118;11.436;2022-09-29T13:42:59;15.50;99.90
29571;DHT22;16814;52.118;11.436;2022-09-29T13:50:51;15.60;99.90
29571;DHT22;16814;52.118;11.436;2022-09-29T13:53:25;15.30;99.90
29571;DHT22;16814;52.118;11.436;2022-09-29T13:56:19;15.00;99.90
29571;DHT22;16814;52.118;11.436;2022-09-29T14:01:29;15.30;99.90
29571;DHT22;16814;52.118;11.436;2022-09-29T14:04:33;15.20;99.90
29571;DHT22;16814;52.118;11.436;2022-09-29T14:07:05;15.00;99.90
29571;DHT22;16814;52.118;11.436;2022-09-29T14:09:37;14.90;99.90
29571;DHT22;16814;52.118;11.436;2022-09-29T14:12:09;14.90;99.90
29571;DHT22;16814;52.118;11.436;2022-09-29T14:14:43;14.90;99.90
29571;DHT22;16814;52.118;11.436;2022-09-29T14:20:19;14.50;99.90
29571;DHT22;16814;52.118;11.436;2022-09-29T14:23:06;14.80;99.90
29571;DHT22;16814;52.118;11.436;2022-09-29T14:28:20;15.20;99.90
29571;DHT22;16814;52.118;11.436;2022-09-29T14:30:52;15.30;99.90
29571;DHT22;16814;52.118;11.436;2022-09-29T14:33:24;15.40;99.90
29571;DHT22;16814;52.118;11.436;2022-09-29T14:36:04;15.10;99.90
29571;DHT22;16814;52.118;11.436;2022-09-29T14:38:48;15.20;99.90
29571;DHT22;16814;52.118;11.436;2022-09-29T14:41:27;15.10;99.90
29571;DHT22;16814;52.118;11.436;2022-09-29T14:46:57;15.00;99.90
29571;DHT22;16814;52.118;11.436;2022-09-29T15:01:30;14.80;99.90
29571;DHT22;16814;52.118;11.436;2022-09-29T15:04:11;14.80;99.90
29571;DHT22;16814;52.118;11.436;2022-09-29T15:07:26;14.70;99.90
29571;DHT22;16814;52.118;11.436;2022-09-29T15:09:58;14.70;99.90
29571;DHT22;16814;52.118;11.436;2022-09-29T15:12:29;15.00;99.90
29571;DHT22;16814;52.118;11.436;2022-09-29T15:15:33;15.00;99.90
29571;DHT22;16814;52.118;11.436;2022-09-29T15:18:19;14.80;99.90
29571;DHT22;16814;52.118;11.436;2022-09-29T15:21:16;14.70;99.90
29571;DHT22;16814;52.118;11.436;2022-09-29T15:26:26;14.50;99.90
29571;DHT22;16814;52.118;11.436;2022-09-29T15:28:59;14.30;99.90
29571;DHT22;16814;52.118;11.436;2022-09-29T15:31:32;14.20;99.90
29571;DHT22;16814;52.118;11.436;2022-09-29T15:34:13;14.10;99.90
29571;DHT22;16814;52.118;11.436;2022-09-29T15:36:41;14.00;99.90
29571;DHT22;16814;52.118;11.436;2022-09-29T15:39:58;13.90;99.90
29571;DHT22;16814;52.118;11.436;2022-09-29T15:42:23;13.80;99.90
29571;DHT22;16814;52.118;11.436;2022-09-29T15:44:59;13.90;99.90
29571;DHT22;16814;52.118;11.436;2022-09-29T15:47:39;13.80;99.90
29571;DHT22;16814;52.118;11.436;2022-09-29T15:50:25;13.80;99.90
29571;DHT22;16814;52.118;11.436;2022-09-29T15:52:52;13.80;99.90
29571;DHT22;16814;52.118;11.436;2022-09-29T15:55:22;13.70;99.90
29571;DHT22;16814;52.118;11.436;2022-09-29T15:57:49;13.60;99.90
29571;DHT22;16814;52.118;11.436;2022-09-29T16:02:58;13.70;99.90
29571;DHT22;16814;52.118;11.436;2022-09-29T16:05:31;13.50;99.90
29571;DHT22;16814;52.118;11.436;2022-09-29T16:08:04;13.60;99.90
29571;DHT22;16814;52.118;11.436;2022-09-29T16:10:46;13.50;99.90
29571;DHT22;16814;52.118;11.436;2022-09-29T16:13:21;13.40;99.90
29571;DHT22;16814;52.118;11.436;2022-09-29T16:15:48;13.40;99.90
29571;DHT22;16814;52.118;11.436;2022-09-29T16:18:19;13.40;99.90
29571;DHT22;16814;52.118;11.436;2022-09-29T16:20:46;13.30;99.90
29571;DHT22;16814;52.118;11.436;2022-09-29T16:28:36;13.00;99.90
29571;DHT22;16814;52.118;11.436;2022-09-29T16:31:16;12.50;99.90
29571;DHT22;16814;52.118;11.436;2022-09-29T16:33:45;12.10;99.90
29571;DHT22;16814;52.118;11.436;2022-09-29T16:36:16;11.90;99.90
29571;DHT22;16814;52.118;11.436;2022-09-29T16:38:47;11.80;99.90
29571;DHT22;16814;52.118;11.436;2022-09-29T16:41:24;11.60;99.90
29571;DHT22;16814;52.118;11.436;2022-09-29T16:46:53;11.40;99.90
29571;DHT22;16814;52.118;11.436;2022-09-29T16:49:30;11.40;99.90
29571;DHT22;16814;52.118;11.436;2022-09-29T16:52:00;11.30;99.90
29571;DHT22;16814;52.118;11.436;2022-09-29T16:54:30;11.30;99.90
29571;DHT22;16814;52.118;11.436;2022-09-29T16:57:18;11.30;99.90
29571;DHT22;16814;52.118;11.436;2022-09-29T16:59:50;11.30;99.90
29571;DHT22;16814;52.118;11.436;2022-09-29T17:02:17;11.20;99.90
29571;DHT22;16814;52.118;11.436;2022-09-29T17:04:42;11.20;99.90
29571;DHT22;16814;52.118;11.436;2022-09-29T17:07:12;11.20;99.90
29571;DHT22;16814;52.118;11.436;2022-09-29T17:09:39;11.30;99.90
29571;DHT22;16814;52.118;11.436;2022-09-29T17:12:14;11.60;99.90
29571;DHT22;16814;52.118;11.436;2022-09-29T17:14:40;12.10;99.90
29571;DHT22;16814;52.118;11.436;2022-09-29T17:17:06;12.30;99.90
29571;DHT22;16814;52.118;11.436;2022-09-29T17:19:31;12.40;99.90
29571;DHT22;16814;52.118;11.436;2022-09-29T17:21:57;12.50;99.90
29571;DHT22;16814;52.118;11.436;2022-09-29T17:24:23;12.60;99.90
29571;DHT22;16814;52.118;11.436;2022-09-29T17:26:49;12.60;99.90
29571;DHT22;16814;52.118;11.436;2022-09-29T17:29:33;12.60;99.90
29571;DHT22;16814;52.118;11.436;2022-09-29T17:32:00;12.40;99.90
29571;DHT22;16814;52.118;11.436;2022-09-29T17:34:28;12.20;99.90
29571;DHT22;16814;52.118;11.436;2022-09-29T17:36:58;12.00;99.90
29571;DHT22;16814;52.118;11.436;2022-09-29T17:39:27;11.80;99.90
29571;DHT22;16814;52.118;11.436;2022-09-29T17:41:53;11.60;99.90
29571;DHT22;16814;52.118;11.436;2022-09-29T17:44:18;11.40;99.90
29571;DHT22;16814;52.118;11.436;2022-09-29T17:46:44;11.30;99.90
29571;DHT22;16814;52.118;11.436;2022-09-29T17:49:12;11.30;99.90
29571;DHT22;16814;52.118;11.436;2022-09-29T17:51:38;11.40;99.90
29571;DHT22;16814;52.118;11.436;2022-09-29T17:54:04;11.40;99.90
29571;DHT22;16814;52.118;11.436;2022-09-29T17:56:30;11.60;99.90
29571;DHT22;16814;52.118;11.436;2022-09-29T17:59:03;11.60;99.90
29571;DHT22;16814;52.118;11.436;2022-09-29T18:01:31;11.60;99.90
29571;DHT22;16814;52.118;11.436;2022-09-29T18:04:02;11.60;99.90